LPPRLPPD

Guest
Details From LPPR - Porto
To LPPD - PONTA DELGADA
Flight Number -
Tags decoded
Created
Modified
Stats Distance 822 nm / 1,522 km
Max Altitude 0 ft / 0 m
Waypoints 6
Social Downloads 7
Likes 0
Share VATSIM

Download

Looking for another format? Having issues loading an existing format? Contact us
Advertisement - Login to hide

Notes

Requested: LPPR LAVPA DIRMA SOPOP ERPES N39W020 BEKUN LPPD Unmatched points: LAVPA N39W020

Route

LPPR DIRMA SOPOP ERPES BEKUN LPPD

ID Type Via Altitude Latitude Longitude Leg Dist Tot Dist Heading (true) Name
O LPPR APT - 0 ft / 0 m 41.24793˚ -8.68122˚ - 0 nm - Porto
DIRMA FIX - 0 ft / 0 m 40.85167˚ -9.50083˚ 44 nm 44 nm 238° / 237° -
SOPOP FIX - 0 ft / 0 m 40.44000˚ -12.38667˚ 133 nm 177 nm 260° / 258° -
ERPES FIX - 0 ft / 0 m 40.00000˚ -15.00000˚ 122 nm 300 nm 258° / 257° -
BEKUN FIX - 0 ft / 0 m 37.94833˚ -23.23472˚ 403 nm 704 nm 255° / 250° -
O LPPD APT - 0 ft / 0 m 37.74208˚ -25.69774˚ 117 nm 821 nm 265° / 263° PONTA DELGADA

Altitude Profile

Advertisement - Login to hide

Weather


0- 5 10 15 20 25 30 35+ Temperature / ° C

Clouds and Precipitation
Forecast for 2017-12-12 00:00 UTC. Updated an hour ago

Ground ~20,000 ft ~40,000 ft Winds

LPPR

Details ICAO LPPR (OPO)
Name Porto
Region Portugal
Timezone Europe/Lisbon (UTC+0.0)
Stats Elevation 228 ft / 69 m (AMSL)
Location 41.247932° -8.681221°
Runways 1
Magnetic Variation 2.340° W

METAR

LPPR 120030Z 14003KT 110V170 CAVOK 04/03 Q1015

Decode

TAF

TAF LPPR 112300Z 1200/1224 09005KT 9999 FEW025 BECMG 1209/1212 VRB03KT BECMG 1212/1215 20005KT BECMG 1218/1220 13005KT 9999 BKN035

Decode

Departure Runways

ID Width Length Bearing (true) Bearing (mag) Surface Threshold Offset Overrun Length
17 148 ft / 45 m 11,451 ft / 3,490 m 168.88° 171.22° Asphalt 984 ft / 300 m 220 ft / 67 m
35 148 ft / 45 m 11,451 ft / 3,490 m 348.89° 351.23° Asphalt 492 ft / 150 m 370 ft / 113 m

LPPD

Details ICAO LPPD (PDL)
Name PONTA DELGADA
Region Portugal
Timezone Atlantic/Azores (UTC-1.0)
Stats Elevation 259 ft / 79 m (AMSL)
Location 37.742078° -25.697736°
Runways 1
Magnetic Variation 8.363° W

METAR

LPPD 120030Z 36006KT 330V030 9999 FEW018 BKN032 16/10 Q1029

Decode

TAF

TAF LPPD 112300Z 1200/1224 36007KT 9999 SCT020 SCT035 BECMG 1206/1209 32007KT FEW012 BKN025 BECMG 1210/1212 VRB05KT

Decode

Destination Runways

ID Width Length Bearing (true) Bearing (mag) Surface Threshold Offset Overrun Length
12 148 ft / 45 m 8,179 ft / 2,493 m 111.77° 120.13° Asphalt 0 ft / 0 m 375 ft / 114 m
30 148 ft / 45 m 8,179 ft / 2,493 m 291.79° 300.15° Asphalt 787 ft / 240 m 0 ft / 0 m

Approach Navaids

Runway Type Ident Frequency Range Bearing (true) Bearing (mag) Slope Elevation
30 Localiser NL 109.50 MHz 18 nm / 33 km 291.78° 300.14° - 259 ft / 79 m (AMSL)
30 Glidescope NL 109.50 MHz 10 nm / 19 km 291.78° 300.14° 3.00° 259 ft / 79 m (AMSL)
30 DME NL 109.50 MHz 18 nm / 33 km - - - 259 ft / 79 m (AMSL)

Popular Alternatives